Time;durP1;ratioP1;P1;durP2;ratioP2;P2;SDS_P1;SDS_P2;PMS_P1;PMS_P2;Temp;Humidity;BMP_temperature;BMP_pressure;BME280_temperature;BME280_humidity;BME280_pressure;Samples;Min_cycle;Max_cycle;Signal;HPM_P1;HPM_P2
2023/08/15 00:02:00;;;;;;;1.17;0.90;;;20.70;99.90;;;;;;5050322;28;20402;-40
2023/08/15 00:04:26;;;;;;;8.40;1.25;;;20.70;99.90;;;;;;5051684;28;20033;-38
2023/08/15 00:06:51;;;;;;;2.70;1.20;;;20.70;99.90;;;;;;5054576;28;20040;-38
2023/08/15 00:09:17;;;;;;;7.30;1.30;;;20.60;99.90;;;;;;5052693;28;20521;-38
2023/08/15 00:11:42;;;;;;;1.98;1.48;;;20.60;99.90;;;;;;5053770;28;20060;-38
2023/08/15 00:14:08;;;;;;;4.07;1.30;;;20.60;99.90;;;;;;5054149;28;20025;-37
2023/08/15 00:16:34;;;;;;;7.53;1.58;;;20.60;99.90;;;;;;5052173;28;20033;-37
2023/08/15 00:18:59;;;;;;;3.65;1.55;;;20.60;99.90;;;;;;5054089;28;20032;-37
2023/08/15 00:21:25;;;;;;;3.83;0.90;;;20.60;99.90;;;;;;5050711;28;20110;-45
2023/08/15 00:23:51;;;;;;;5.03;1.50;;;20.50;99.90;;;;;;5052293;28;20595;-38
2023/08/15 00:26:17;;;;;;;4.75;1.83;;;20.50;99.90;;;;;;5053057;28;20032;-41
2023/08/15 00:28:42;;;;;;;6.45;1.27;;;20.50;99.90;;;;;;5052765;28;20025;-38
2023/08/15 00:31:08;;;;;;;3.30;1.15;;;20.40;99.90;;;;;;5054141;28;20536;-38
2023/08/15 00:33:33;;;;;;;6.78;1.35;;;20.40;99.90;;;;;;5053118;28;20017;-39
2023/08/15 00:35:59;;;;;;;3.70;1.05;;;20.40;99.90;;;;;;5053644;28;20075;-37
2023/08/15 00:38:25;;;;;;;1.90;1.10;;;20.40;99.90;;;;;;5050718;28;20742;-37
2023/08/15 00:40:51;;;;;;;2.45;1.05;;;20.40;99.90;;;;;;5052385;28;20029;-52
2023/08/15 00:43:18;;;;;;;2.30;1.17;;;20.40;99.90;;;;;;5049847;28;20428;-39
2023/08/15 00:45:44;;;;;;;5.00;1.10;;;20.40;99.90;;;;;;5052329;28;20482;-42
2023/08/15 00:48:11;;;;;;;5.35;1.52;;;20.40;99.90;;;;;;5053159;28;20036;-37
2023/08/15 00:50:38;;;;;;;4.47;1.30;;;20.30;99.90;;;;;;5052465;28;20024;-38
2023/08/15 00:53:04;;;;;;;4.70;0.82;;;20.30;99.90;;;;;;5051359;28;20033;-38
2023/08/15 00:55:31;;;;;;;4.43;1.63;;;20.40;99.90;;;;;;5050868;28;20056;-37
2023/08/15 00:57:57;;;;;;;2.45;1.00;;;20.40;99.90;;;;;;5053378;28;20021;-37
2023/08/15 01:00:23;;;;;;;3.90;1.65;;;20.30;99.90;;;;;;5052370;28;20025;-38
2023/08/15 01:02:49;;;;;;;4.60;1.20;;;20.30;99.90;;;;;;5067125;28;20124;-39
2023/08/15 01:05:16;;;;;;;2.30;1.20;;;20.30;99.90;;;;;;5066883;28;20017;-37
2023/08/15 01:07:42;;;;;;;1.58;0.98;;;20.30;99.90;;;;;;5067246;28;20527;-38
2023/08/15 01:10:08;;;;;;;1.75;1.15;;;20.40;99.90;;;;;;5072326;28;20028;-38
2023/08/15 01:12:51;;;;;;;4.47;1.10;;;20.30;99.90;;;;;;5073048;28;20527;-37
2023/08/15 01:15:22;;;;;;;3.83;1.23;;;20.40;99.90;;;;;;5072800;28;20044;-38
2023/08/15 01:18:06;;;;;;;9.27;1.95;;;20.30;99.90;;;;;;5072093;28;20480;-51
2023/08/15 01:20:33;;;;;;;2.65;1.00;;;20.40;99.90;;;;;;5073004;28;20389;-39
2023/08/15 01:23:06;;;;;;;1.92;0.90;;;20.30;99.90;;;;;;5071417;28;20088;-38
2023/08/15 01:25:32;;;;;;;2.83;1.58;;;20.30;99.90;;;;;;5072313;28;20480;-57
2023/08/15 01:28:02;;;;;;;2.38;0.88;;;20.30;99.90;;;;;;5072898;28;20579;-37
2023/08/15 01:30:27;;;;;;;2.92;1.27;;;20.30;99.90;;;;;;5071149;28;20032;-37
2023/08/15 01:33:12;;;;;;;4.30;1.02;;;20.30;99.90;;;;;;5072082;28;20560;-37
2023/08/15 01:35:46;;;;;;;4.90;1.25;;;20.30;99.90;;;;;;5072802;28;20032;-37
2023/08/15 01:38:31;;;;;;;4.78;1.67;;;20.20;99.90;;;;;;5069206;28;20086;-37
2023/08/15 01:40:59;;;;;;;1.85;1.20;;;20.20;99.90;;;;;;5071698;28;20154;-37
2023/08/15 01:43:26;;;;;;;7.80;1.40;;;20.30;99.90;;;;;;5072664;28;20016;-37
2023/08/15 01:45:53;;;;;;;2.55;1.75;;;20.30;99.90;;;;;;5061619;28;20040;-39
2023/08/15 01:48:18;;;;;;;5.93;1.75;;;20.30;99.90;;;;;;5070057;28;20036;-38
2023/08/15 01:50:44;;;;;;;8.07;1.95;;;20.20;99.90;;;;;;5059660;28;20029;-37
2023/08/15 01:53:10;;;;;;;7.07;2.08;;;20.20;99.90;;;;;;5048455;28;20043;-39
2023/08/15 01:55:35;;;;;;;2.80;1.38;;;20.20;99.90;;;;;;5071696;28;20032;-38
2023/08/15 01:58:01;;;;;;;8.38;1.83;;;20.20;99.90;;;;;;5070988;28;20099;-38
2023/08/15 02:00:26;;;;;;;5.95;1.30;;;20.10;99.90;;;;;;5071914;28;20028;-38
2023/08/15 02:02:52;;;;;;;3.88;1.50;;;20.10;99.90;;;;;;5072363;28;20048;-39
2023/08/15 02:05:18;;;;;;;3.25;1.52;;;20.10;99.90;;;;;;5071933;28;20032;-62
2023/08/15 02:07:43;;;;;;;6.45;2.03;;;19.90;99.90;;;;;;5069972;28;20428;-39
2023/08/15 02:10:09;;;;;;;8.85;2.55;;;19.90;99.90;;;;;;5069874;28;20087;-38
2023/08/15 02:12:35;;;;;;;4.35;1.65;;;19.90;99.90;;;;;;5072192;28;20028;-37
2023/08/15 02:15:02;;;;;;;7.97;1.63;;;19.90;99.90;;;;;;5072422;28;20172;-37
2023/08/15 02:17:28;;;;;;;6.80;2.00;;;19.90;99.90;;;;;;5071686;28;20024;-37
2023/08/15 02:19:53;;;;;;;5.43;2.25;;;19.90;99.90;;;;;;5071669;28;20481;-38
2023/08/15 02:22:19;;;;;;;5.43;2.08;;;19.90;99.90;;;;;;5070734;28;20027;-37
2023/08/15 02:24:44;;;;;;;10.43;1.80;;;19.90;99.90;;;;;;5071523;28;20544;-37
2023/08/15 02:27:10;;;;;;;8.48;2.17;;;19.90;99.90;;;;;;5071927;28;20024;-37
2023/08/15 02:29:36;;;;;;;4.53;2.15;;;19.80;99.90;;;;;;5076138;28;20269;-38
2023/08/15 02:32:03;;;;;;;4.15;2.22;;;19.80;99.90;;;;;;5076378;28;20031;-38
2023/08/15 02:34:28;;;;;;;5.78;2.45;;;19.80;99.90;;;;;;5075903;28;20029;-38
2023/08/15 02:36:54;;;;;;;4.40;2.60;;;19.80;99.90;;;;;;5073703;28;20425;-39
2023/08/15 02:39:19;;;;;;;8.48;2.85;;;19.70;99.90;;;;;;5075939;28;20032;-38
2023/08/15 02:41:45;;;;;;;6.22;2.38;;;19.80;99.90;;;;;;5075019;28;20476;-37
2023/08/15 02:44:11;;;;;;;9.98;3.13;;;19.70;99.90;;;;;;5075126;28;20028;-37
2023/08/15 02:46:36;;;;;;;7.13;2.63;;;19.80;99.90;;;;;;5056245;28;20017;-38
2023/08/15 02:49:02;;;;;;;8.27;2.75;;;19.70;99.90;;;;;;5072721;28;20048;-37
2023/08/15 02:51:28;;;;;;;7.15;2.15;;;19.70;99.90;;;;;;5072664;28;20031;-37
2023/08/15 02:53:53;;;;;;;7.53;2.47;;;19.60;99.90;;;;;;5056469;28;20028;-38
2023/08/15 02:56:19;;;;;;;8.70;2.97;;;19.70;99.90;;;;;;5074190;28;20039;-70
2023/08/15 02:58:45;;;;;;;7.85;2.63;;;19.60;99.90;;;;;;5075624;28;20096;-37
2023/08/15 03:01:10;;;;;;;5.63;2.80;;;19.60;99.90;;;;;;5074635;28;20024;-38
2023/08/15 03:03:36;;;;;;;2.38;2.10;;;19.50;99.90;;;;;;5072556;28;20031;-38
2023/08/15 03:06:03;;;;;;;7.93;2.35;;;19.50;99.90;;;;;;5074672;28;20477;-37
2023/08/15 03:08:30;;;;;;;4.00;2.17;;;19.40;99.90;;;;;;5073146;28;20027;-38
2023/08/15 03:10:56;;;;;;;5.37;2.30;;;19.40;99.90;;;;;;5056591;28;20318;-37
2023/08/15 03:13:22;;;;;;;7.05;2.30;;;19.40;99.90;;;;;;5075545;28;20804;-39
2023/08/15 03:15:55;;;;;;;8.35;2.38;;;19.30;99.90;;;;;;5055606;28;20123;-37
2023/08/15 03:18:21;;;;;;;4.47;2.63;;;19.30;99.90;;;;;;5075205;28;20033;-38
2023/08/15 03:21:02;;;;;;;5.75;2.30;;;19.30;99.90;;;;;;5073727;28;20100;-38
2023/08/15 03:23:28;;;;;;;5.57;2.38;;;19.30;99.90;;;;;;5054776;28;20119;-37
2023/08/15 03:26:02;;;;;;;4.65;2.05;;;19.20;99.90;;;;;;5074170;28;20060;-37
2023/08/15 03:28:28;;;;;;;7.07;2.72;;;19.10;99.90;;;;;;5075329;28;20081;-36
2023/08/15 03:30:54;;;;;;;5.35;2.40;;;19.10;99.90;;;;;;5074539;28;20032;-37
2023/08/15 03:33:20;;;;;;;7.35;3.03;;;19.10;99.90;;;;;;5074026;28;20035;-37
2023/08/15 03:35:51;;;;;;;6.15;2.75;;;19.00;99.90;;;;;;5074860;28;20035;-38
2023/08/15 03:38:19;;;;;;;8.40;2.95;;;19.00;99.90;;;;;;5072435;28;20070;-37
2023/08/15 03:40:46;;;;;;;5.55;2.08;;;19.00;99.90;;;;;;5074044;28;20024;-37
2023/08/15 03:43:12;;;;;;;4.28;2.45;;;19.00;99.90;;;;;;5074749;28;20031;-39
2023/08/15 03:45:39;;;;;;;5.97;2.10;;;18.90;99.90;;;;;;5072251;28;20081;-37
2023/08/15 03:48:06;;;;;;;10.45;3.58;;;18.90;99.90;;;;;;5073841;28;20106;-38
2023/08/15 03:50:37;;;;;;;13.43;2.97;;;18.90;99.90;;;;;;5072475;28;20017;-39
2023/08/15 03:53:03;;;;;;;12.38;3.20;;;18.90;99.90;;;;;;5070774;28;20025;-38
2023/08/15 03:55:30;;;;;;;6.97;2.30;;;18.80;99.90;;;;;;5056548;28;20107;-37
2023/08/15 03:57:56;;;;;;;7.50;1.95;;;18.80;99.90;;;;;;5073878;28;20481;-37
2023/08/15 04:00:24;;;;;;;4.35;2.50;;;18.80;99.90;;;;;;5072035;28;20472;-39
2023/08/15 04:02:50;;;;;;;5.45;2.03;;;18.80;99.90;;;;;;5074325;28;20036;-61
2023/08/15 04:05:17;;;;;;;5.15;2.30;;;18.80;99.90;;;;;;5073440;28;20074;-37
2023/08/15 04:07:43;;;;;;;11.43;3.55;;;18.80;99.90;;;;;;5074233;28;20023;-37
2023/08/15 04:10:13;;;;;;;11.68;2.70;;;18.80;99.90;;;;;;5073052;28;20020;-37
2023/08/15 04:12:39;;;;;;;6.03;2.40;;;18.70;99.90;;;;;;5072778;28;20469;-38
2023/08/15 04:15:05;;;;;;;4.63;2.53;;;18.70;99.90;;;;;;5073302;28;20473;-38
2023/08/15 04:17:31;;;;;;;13.55;2.97;;;18.70;99.90;;;;;;5056164;28;20035;-37
2023/08/15 04:19:56;;;;;;;2.58;1.90;;;18.60;99.90;;;;;;5072651;28;20389;-39
2023/08/15 04:22:22;;;;;;;7.53;2.42;;;18.60;99.90;;;;;;5073965;28;20021;-37
2023/08/15 04:24:48;;;;;;;4.78;2.42;;;18.60;99.90;;;;;;5071721;28;20700;-39
2023/08/15 04:27:13;;;;;;;7.38;2.42;;;18.60;99.90;;;;;;5072381;28;20423;-37
2023/08/15 04:29:39;;;;;;;7.53;2.22;;;18.60;99.90;;;;;;5073008;28;20031;-37
2023/08/15 04:32:05;;;;;;;12.15;2.63;;;18.60;99.90;;;;;;5072980;28;20507;-37
2023/08/15 04:34:30;;;;;;;6.18;2.08;;;18.60;99.90;;;;;;5070932;28;20028;-58
2023/08/15 04:36:56;;;;;;;7.07;2.60;;;18.60;99.90;;;;;;5073435;28;20468;-51
2023/08/15 04:39:22;;;;;;;8.23;2.08;;;18.60;99.90;;;;;;5073646;28;20464;-49
2023/08/15 04:41:48;;;;;;;7.28;2.35;;;18.50;99.90;;;;;;5072897;28;20035;-48
2023/08/15 04:44:13;;;;;;;4.90;2.72;;;18.50;99.90;;;;;;5072872;28;20032;-51
2023/08/15 04:46:39;;;;;;;8.25;2.50;;;18.50;99.90;;;;;;5073492;28;20385;-48
2023/08/15 04:49:05;;;;;;;7.93;2.92;;;18.50;99.90;;;;;;5073456;28;20495;-50
2023/08/15 04:51:31;;;;;;;8.57;2.75;;;18.50;99.90;;;;;;5059793;28;20033;-48
2023/08/15 04:53:57;;;;;;;7.70;2.63;;;18.50;99.90;;;;;;5065997;28;20028;-47
2023/08/15 04:56:22;;;;;;;4.47;2.38;;;18.50;99.90;;;;;;5072546;28;20469;-63
2023/08/15 04:58:48;;;;;;;9.02;2.58;;;18.40;99.90;;;;;;5073303;28;20090;-49
2023/08/15 05:01:14;;;;;;;10.20;2.58;;;18.50;99.90;;;;;;5071580;28;20099;-45
2023/08/15 05:03:40;;;;;;;7.72;2.40;;;18.50;99.90;;;;;;5072577;28;20492;-51
2023/08/15 05:06:05;;;;;;;5.20;2.15;;;18.50;99.90;;;;;;5072295;28;20035;-49
2023/08/15 05:08:31;;;;;;;7.20;2.78;;;18.50;99.90;;;;;;5072257;28;20481;-50
2023/08/15 05:10:57;;;;;;;7.90;2.03;;;18.50;99.90;;;;;;5072590;28;20032;-46
2023/08/15 05:13:23;;;;;;;7.20;2.67;;;18.60;99.90;;;;;;5072269;28;20056;-57
2023/08/15 05:15:48;;;;;;;7.57;2.53;;;18.50;99.90;;;;;;5073056;28;20078;-47
2023/08/15 05:18:15;;;;;;;6.05;2.10;;;18.60;99.90;;;;;;5069311;28;20024;-37
2023/08/15 05:20:42;;;;;;;5.82;2.63;;;18.50;99.90;;;;;;5070846;28;20029;-38
2023/08/15 05:23:07;;;;;;;5.65;2.10;;;18.60;99.90;;;;;;5069650;28;20016;-39
2023/08/15 05:25:33;;;;;;;14.23;2.50;;;18.60;99.90;;;;;;5072250;28;20036;-37
2023/08/15 05:28:05;;;;;;;8.95;2.53;;;18.60;99.90;;;;;;5072307;28;20081;-39
2023/08/15 05:30:34;;;;;;;7.78;3.75;;;18.60;99.90;;;;;;5070479;28;20036;-37
2023/08/15 05:33:00;;;;;;;7.40;2.75;;;18.70;99.90;;;;;;5072922;28;20024;-37
2023/08/15 05:35:26;;;;;;;9.85;2.30;;;18.70;99.90;;;;;;5071862;28;20025;-39
2023/08/15 05:37:53;;;;;;;9.05;2.42;;;18.70;99.90;;;;;;5072741;28;20093;-37
2023/08/15 05:40:18;;;;;;;8.27;2.65;;;18.70;99.90;;;;;;5037541;28;20029;-38
2023/08/15 05:42:44;;;;;;;7.75;2.58;;;18.70;99.90;;;;;;5053298;28;20075;-37
2023/08/15 05:45:10;;;;;;;7.50;2.55;;;18.80;99.90;;;;;;5062939;28;20025;-37
2023/08/15 05:47:36;;;;;;;16.35;3.05;;;18.80;99.90;;;;;;5071920;28;20544;-38
2023/08/15 05:50:02;;;;;;;8.30;2.55;;;18.80;99.90;;;;;;5072123;28;20496;-37
2023/08/15 05:52:28;;;;;;;4.80;2.50;;;18.90;99.90;;;;;;5072644;28;20035;-39
2023/08/15 05:54:55;;;;;;;10.77;2.83;;;18.90;99.90;;;;;;5068747;28;20029;-38
2023/08/15 05:57:21;;;;;;;6.13;1.83;;;19.00;99.90;;;;;;5072631;28;20025;-42
2023/08/15 05:59:46;;;;;;;4.53;1.77;;;19.10;99.90;;;;;;5070305;28;20027;-39
2023/08/15 06:02:13;;;;;;;7.68;2.55;;;19.20;99.90;;;;;;5068962;28;20044;-37
2023/08/15 06:04:39;;;;;;;13.27;2.70;;;19.20;99.90;;;;;;5076583;28;20535;-38
2023/08/15 06:07:04;;;;;;;8.50;2.42;;;19.30;99.90;;;;;;5072055;28;20103;-38
2023/08/15 06:09:30;;;;;;;12.82;3.00;;;19.40;99.90;;;;;;5076676;28;20492;-38
2023/08/15 06:11:56;;;;;;;10.63;3.33;;;19.50;99.90;;;;;;5076517;28;20540;-37
2023/08/15 06:14:21;;;;;;;7.78;2.80;;;19.70;99.90;;;;;;5075625;28;20032;-39
2023/08/15 06:16:48;;;;;;;11.07;3.28;;;19.80;99.90;;;;;;5073849;28;20036;-37
2023/08/15 06:19:14;;;;;;;9.68;2.35;;;19.90;99.90;;;;;;5065968;28;20021;-38
2023/08/15 06:21:42;;;;;;;8.90;1.80;;;19.90;99.90;;;;;;5073749;28;20137;-38
2023/08/15 06:24:09;;;;;;;8.15;3.25;;;19.90;99.90;;;;;;5067556;28;20054;-38
2023/08/15 06:26:35;;;;;;;6.30;3.33;;;20.00;99.90;;;;;;5066216;28;20029;-38
2023/08/15 06:29:01;;;;;;;7.85;3.10;;;20.00;99.90;;;;;;5074977;28;20028;-37
2023/08/15 06:31:27;;;;;;;10.63;3.45;;;19.90;99.90;;;;;;5073247;28;20032;-41
2023/08/15 06:33:53;;;;;;;9.35;2.15;;;19.90;99.90;;;;;;5072230;28;20505;-38
2023/08/15 06:36:19;;;;;;;7.30;2.30;;;20.00;99.90;;;;;;5069231;28;20103;-38
2023/08/15 06:38:44;;;;;;;12.32;3.28;;;20.00;99.90;;;;;;5075924;28;20500;-38
2023/08/15 06:41:11;;;;;;;7.10;2.30;;;20.10;99.90;;;;;;5047059;28;20048;-37
2023/08/15 06:43:37;;;;;;;8.27;2.20;;;20.10;99.90;;;;;;5055948;28;20032;-38
2023/08/15 06:46:03;;;;;;;7.85;2.42;;;20.10;99.90;;;;;;5056025;28;20270;-47
2023/08/15 06:48:29;;;;;;;9.32;2.50;;;20.10;99.90;;;;;;5065198;28;20063;-39
2023/08/15 06:50:55;;;;;;;14.48;3.30;;;20.10;99.90;;;;;;5075003;28;20037;-38
2023/08/15 06:53:21;;;;;;;14.77;2.28;;;20.10;99.90;;;;;;5075694;28;20047;-37
2023/08/15 06:55:49;;;;;;;8.98;2.72;;;20.20;99.90;;;;;;5075187;28;20032;-38
2023/08/15 06:58:15;;;;;;;13.60;3.17;;;20.30;99.90;;;;;;5073555;28;20441;-39
2023/08/15 07:00:43;;;;;;;7.53;2.17;;;20.20;99.90;;;;;;5074213;28;20038;-38
2023/08/15 07:03:08;;;;;;;6.53;2.30;;;20.30;99.90;;;;;;5075009;28;20114;-38
2023/08/15 07:05:34;;;;;;;4.25;1.75;;;20.30;99.90;;;;;;5066493;28;20029;-39
2023/08/15 07:08:00;;;;;;;6.30;2.85;;;20.30;99.90;;;;;;5074669;28;20366;-38
2023/08/15 07:10:26;;;;;;;13.05;3.42;;;20.40;99.90;;;;;;5072716;28;20033;-38
2023/08/15 07:12:51;;;;;;;8.70;2.40;;;20.40;99.90;;;;;;5071776;28;20060;-38
2023/08/15 07:15:17;;;;;;;6.85;2.60;;;20.50;99.90;;;;;;5073898;28;20495;-38
2023/08/15 07:17:43;;;;;;;10.88;2.17;;;20.40;99.90;;;;;;5072527;28;20469;-38
2023/08/15 07:20:10;;;;;;;8.00;2.28;;;20.50;99.90;;;;;;5072487;28;20020;-41
2023/08/15 07:22:36;;;;;;;8.32;2.17;;;20.40;99.90;;;;;;5071252;28;20059;-38
2023/08/15 07:25:01;;;;;;;7.18;2.13;;;20.60;99.90;;;;;;5073498;28;20024;-38
2023/08/15 07:27:27;;;;;;;9.38;3.22;;;20.80;99.90;;;;;;5062542;28;20052;-40
2023/08/15 07:29:53;;;;;;;6.55;2.28;;;21.00;99.90;;;;;;5054914;28;20025;-40
2023/08/15 07:32:19;;;;;;;9.35;2.58;;;21.10;99.90;;;;;;5069615;28;20055;-38
2023/08/15 07:34:45;;;;;;;7.35;2.38;;;21.20;99.90;;;;;;5074941;28;20029;-37
2023/08/15 07:37:10;;;;;;;9.93;2.15;;;21.30;99.90;;;;;;5073760;28;20039;-41
2023/08/15 07:39:36;;;;;;;3.67;2.42;;;21.50;99.90;;;;;;5074880;28;20017;-74
2023/08/15 07:42:02;;;;;;;6.00;2.55;;;21.70;99.90;;;;;;5072986;28;20099;-39
2023/08/15 07:44:28;;;;;;;9.57;2.55;;;21.80;99.90;;;;;;5071143;28;20047;-38
2023/08/15 07:46:53;;;;;;;9.32;3.08;;;21.80;99.90;;;;;;5071514;28;20029;-43
2023/08/15 07:49:20;;;;;;;10.05;2.42;;;21.60;99.90;;;;;;5074325;28;20032;-49
2023/08/15 07:51:46;;;;;;;6.70;1.37;;;21.30;99.90;;;;;;5054338;28;20029;-51
2023/08/15 07:54:12;;;;;;;6.35;2.63;;;21.20;99.90;;;;;;5074757;28;20289;-48
2023/08/15 07:56:38;;;;;;;8.93;2.43;;;21.30;99.90;;;;;;5055801;28;20099;-50
2023/08/15 07:59:04;;;;;;;8.63;2.92;;;21.50;99.90;;;;;;5074786;28;20302;-49
2023/08/15 08:01:29;;;;;;;7.75;2.90;;;21.90;99.90;;;;;;5072361;28;20017;-50
2023/08/15 08:03:55;;;;;;;9.35;3.60;;;22.10;99.90;;;;;;5068042;28;20053;-51
2023/08/15 08:06:21;;;;;;;9.52;3.53;;;22.20;99.90;;;;;;5069152;28;20032;-49
2023/08/15 08:08:48;;;;;;;7.38;3.17;;;22.30;99.90;;;;;;5074635;28;20024;-50
2023/08/15 08:11:13;;;;;;;11.25;4.10;;;22.40;99.90;;;;;;5072591;28;20027;-50
2023/08/15 08:13:39;;;;;;;13.65;4.72;;;22.40;99.90;;;;;;5065723;28;20025;-51
2023/08/15 08:16:05;;;;;;;7.20;4.05;;;22.40;99.90;;;;;;5064253;28;20532;-48
2023/08/15 08:18:30;;;;;;;7.43;4.50;;;22.50;99.90;;;;;;5072401;28;20330;-47
2023/08/15 08:20:56;;;;;;;9.00;4.47;;;22.60;99.90;;;;;;5068678;28;20017;-49
2023/08/15 08:23:23;;;;;;;11.35;5.43;;;22.70;99.90;;;;;;5071597;28;20017;-54
2023/08/15 08:25:49;;;;;;;9.95;4.82;;;22.70;99.90;;;;;;5069970;28;20031;-47
2023/08/15 08:28:15;;;;;;;4.05;3.70;;;22.70;99.90;;;;;;5071200;28;20028;-49
2023/08/15 08:30:44;;;;;;;9.15;4.40;;;22.70;99.90;;;;;;5071458;28;20039;-49
2023/08/15 08:33:09;;;;;;;11.40;4.53;;;22.70;99.90;;;;;;5073418;28;20481;-58
2023/08/15 08:35:36;;;;;;;4.80;3.40;;;22.60;99.90;;;;;;5071543;28;20059;-50
2023/08/15 08:38:01;;;;;;;9.00;4.05;;;22.40;99.90;;;;;;5073391;28;20031;-50
2023/08/15 08:40:28;;;;;;;7.38;3.45;;;22.40;99.90;;;;;;5073519;28;20024;-50
2023/08/15 08:42:53;;;;;;;12.80;3.70;;;22.20;99.90;;;;;;5073266;28;20021;-50
2023/08/15 08:45:25;;;;;;;8.18;4.20;;;22.10;99.90;;;;;;5073240;28;20039;-47
2023/08/15 08:47:52;;;;;;;9.52;4.60;;;21.90;99.90;;;;;;5073343;28;20035;-48
2023/08/15 08:50:18;;;;;;;6.65;3.85;;;22.00;99.90;;;;;;5073386;28;20031;-47
2023/08/15 08:52:50;;;;;;;6.88;4.68;;;22.10;99.90;;;;;;5073140;28;20052;-46
2023/08/15 08:55:21;;;;;;;8.45;4.03;;;22.10;99.90;;;;;;5072906;28;20063;-51
2023/08/15 08:57:52;;;;;;;11.80;4.50;;;22.20;99.90;;;;;;5053210;28;20032;-52
2023/08/15 09:00:22;;;;;;;7.15;4.25;;;22.30;99.90;;;;;;5049192;28;20024;-50
2023/08/15 09:02:47;;;;;;;9.82;4.40;;;22.20;99.90;;;;;;5068196;28;20640;-51
2023/08/15 09:05:13;;;;;;;9.90;4.85;;;22.20;99.90;;;;;;5072939;28;20454;-50
2023/08/15 09:07:40;;;;;;;6.47;4.60;;;22.20;99.90;;;;;;5073149;28;20028;-47
2023/08/15 09:10:06;;;;;;;14.33;5.17;;;22.30;99.90;;;;;;5070429;28;20089;-50
2023/08/15 09:12:35;;;;;;;10.50;4.25;;;22.30;99.90;;;;;;5054861;28;20032;-49
2023/08/15 09:15:03;;;;;;;10.07;5.65;;;22.30;99.90;;;;;;5070681;28;20028;-52
2023/08/15 09:17:30;;;;;;;10.23;4.50;;;22.30;99.90;;;;;;5067117;28;20393;-51
2023/08/15 09:19:56;;;;;;;10.45;4.20;;;22.30;99.90;;;;;;5070977;28;20369;-45
2023/08/15 09:22:22;;;;;;;9.07;4.68;;;22.30;99.90;;;;;;5069296;28;20008;-50
2023/08/15 09:24:49;;;;;;;7.32;3.53;;;22.20;99.90;;;;;;5071607;28;20123;-51
2023/08/15 09:27:15;;;;;;;5.45;3.33;;;22.20;99.90;;;;;;5072742;28;20024;-49
2023/08/15 09:29:40;;;;;;;9.23;3.65;;;22.20;99.90;;;;;;5071945;28;20408;-48
2023/08/15 09:32:08;;;;;;;6.75;3.63;;;22.20;99.90;;;;;;5072850;28;20029;-62
2023/08/15 09:34:33;;;;;;;;;;;22.20;99.90;;;;;;5071978;28;20025;-52
2023/08/15 09:36:59;;;;;;;8.73;4.07;;;22.10;99.90;;;;;;5071444;28;19909;-53
2023/08/15 09:39:28;;;;;;;5.35;3.70;;;22.10;99.90;;;;;;5069374;28;20033;-51
2023/08/15 09:41:54;;;;;;;10.77;3.95;;;22.20;99.90;;;;;;5054743;28;20028;-49
2023/08/15 09:44:34;;;;;;;6.93;3.83;;;22.10;99.90;;;;;;5071781;28;20365;-50
2023/08/15 09:47:01;;;;;;;6.53;3.30;;;22.10;99.90;;;;;;5071794;28;20063;-48
2023/08/15 09:49:28;;;;;;;5.72;4.28;;;22.10;99.90;;;;;;5051614;28;20056;-52
2023/08/15 09:51:59;;;;;;;7.25;3.40;;;22.10;99.90;;;;;;5071362;28;20024;-49
2023/08/15 09:54:25;;;;;;;4.90;2.90;;;22.10;99.90;;;;;;5054823;28;20053;-49
2023/08/15 09:56:51;;;;;;;8.13;3.17;;;22.00;99.90;;;;;;5060106;28;20064;-51
2023/08/15 09:59:17;;;;;;;5.90;3.38;;;22.00;99.90;;;;;;5072379;28;20029;-51
2023/08/15 10:01:46;;;;;;;12.82;3.33;;;22.10;99.90;;;;;;5072266;28;20016;-52
2023/08/15 10:04:15;;;;;;;6.35;3.10;;;22.10;99.90;;;;;;5054379;28;20039;-51
2023/08/15 10:06:45;;;;;;;6.88;3.22;;;22.00;99.90;;;;;;5071798;28;20507;-49
2023/08/15 10:09:14;;;;;;;8.88;2.83;;;22.00;99.90;;;;;;5071004;28;20055;-52
2023/08/15 10:11:44;;;;;;;7.32;3.28;;;22.00;99.90;;;;;;5072608;28;20537;-50
2023/08/15 10:14:14;;;;;;;8.60;2.83;;;21.90;99.90;;;;;;5071676;28;20021;-51
2023/08/15 10:16:40;;;;;;;12.32;3.22;;;21.90;99.90;;;;;;5069594;28;20028;-47
2023/08/15 10:19:13;;;;;;;8.38;3.38;;;21.80;99.90;;;;;;5072580;28;20033;-51
2023/08/15 10:21:50;;;;;;;7.90;3.72;;;21.90;99.90;;;;;;5072250;28;20017;-51
2023/08/15 10:24:16;;;;;;;6.72;3.15;;;22.10;99.90;;;;;;5071445;28;20033;-51
2023/08/15 10:26:45;;;;;;;10.52;4.20;;;22.30;99.90;;;;;;5072499;28;20077;-52
2023/08/15 10:29:12;;;;;;;8.15;3.38;;;22.50;99.90;;;;;;5072298;28;20401;-49
2023/08/15 10:31:40;;;;;;;10.10;3.50;;;22.70;99.90;;;;;;5072201;28;20021;-47
2023/08/15 10:34:09;;;;;;;9.60;2.85;;;22.80;99.90;;;;;;5069657;28;20060;-49
2023/08/15 10:36:35;;;;;;;8.10;1.85;;;23.00;99.90;;;;;;5069495;28;20012;-50
2023/08/15 10:39:06;;;;;;;4.88;2.30;;;23.10;99.90;;;;;;5063310;28;20110;-49
2023/08/15 10:41:36;;;;;;;4.18;1.58;;;23.10;99.90;;;;;;5061417;28;20377;-48
2023/08/15 10:44:06;;;;;;;7.95;1.90;;;23.10;99.90;;;;;;5072202;28;20314;-51
2023/08/15 10:46:33;;;;;;;8.88;1.60;;;23.10;99.90;;;;;;5071827;28;20048;-51
2023/08/15 10:49:01;;;;;;;;;;;23.00;99.90;;;;;;5073865;28;20027;-54
2023/08/15 10:51:41;;;;;;;6.70;1.88;;;22.90;99.90;;;;;;5073341;28;20003;-48
2023/08/15 10:54:10;;;;;;;10.25;1.80;;;22.90;99.90;;;;;;5074961;28;20082;-49
2023/08/15 10:56:37;;;;;;;8.57;1.90;;;23.00;99.90;;;;;;5074457;28;20343;-53
2023/08/15 10:59:14;;;;;;;5.63;1.80;;;23.10;99.90;;;;;;5063311;28;20025;-52
2023/08/15 11:01:46;;;;;;;6.82;1.92;;;23.20;99.90;;;;;;5055406;28;20021;-47
2023/08/15 11:04:23;;;;;;;8.15;1.45;;;23.30;99.90;;;;;;5055572;28;20021;-50
2023/08/15 11:06:52;;;;;;;3.78;1.70;;;23.40;99.90;;;;;;5055433;28;20032;-52
2023/08/15 11:09:18;;;;;;;6.55;2.00;;;23.60;99.90;;;;;;5070085;28;20040;-49
2023/08/15 11:11:44;;;;;;;6.60;1.70;;;23.80;99.90;;;;;;5073155;28;20028;-49
2023/08/15 11:14:18;;;;;;;2.08;1.27;;;24.00;99.90;;;;;;5075224;28;20499;-51
2023/08/15 11:16:48;;;;;;;7.47;1.98;;;23.80;99.90;;;;;;5068526;28;20029;-48
2023/08/15 11:19:18;;;;;;;3.45;1.17;;;23.60;99.90;;;;;;5055190;28;20033;-46
2023/08/15 11:21:44;;;;;;;2.58;1.20;;;23.40;99.90;;;;;;5068226;28;20039;-49
2023/08/15 11:24:10;;;;;;;4.80;1.20;;;23.30;99.90;;;;;;5075035;28;20028;-50
2023/08/15 11:26:36;;;;;;;3.53;2.38;;;23.10;99.90;;;;;;5075059;28;20036;-47
2023/08/15 11:29:02;;;;;;;5.38;1.80;;;22.90;99.90;;;;;;5074893;28;20025;-51
2023/08/15 11:31:30;;;;;;;3.03;2.17;;;22.90;99.90;;;;;;5073949;28;20017;-51
2023/08/15 11:33:57;;;;;;;;;;;22.90;99.90;;;;;;5075104;28;20021;-48
2023/08/15 11:36:23;;;;;;;4.95;1.90;;;23.00;99.90;;;;;;5074920;28;19919;-51
2023/08/15 11:38:49;;;;;;;2.00;1.30;;;22.90;99.90;;;;;;5074741;28;20028;-59
2023/08/15 11:41:15;;;;;;;4.47;1.48;;;23.00;99.90;;;;;;5056475;28;20017;-50
2023/08/15 11:43:40;;;;;;;3.17;1.60;;;23.10;99.90;;;;;;5074535;28;20319;-51
2023/08/15 11:46:07;;;;;;;8.98;1.90;;;23.10;99.90;;;;;;5074504;28;20024;-49
2023/08/15 11:48:33;;;;;;;1.98;1.58;;;23.20;99.90;;;;;;5073504;28;20052;-52
2023/08/15 11:51:00;;;;;;;2.05;1.75;;;23.50;99.90;;;;;;5073048;28;20428;-52
2023/08/15 11:53:26;;;;;;;2.73;1.43;;;23.80;99.90;;;;;;5074578;28;20108;-49
2023/08/15 11:55:52;;;;;;;2.13;1.48;;;23.80;99.90;;;;;;5074524;28;20629;-50
2023/08/15 11:58:22;;;;;;;2.40;1.40;;;23.80;99.90;;;;;;5067737;28;20021;-48
2023/08/15 12:00:47;;;;;;;4.05;1.48;;;23.90;99.90;;;;;;5070499;28;20074;-52
2023/08/15 12:03:14;;;;;;;0.75;0.75;;;24.00;99.90;;;;;;5072915;28;20044;-52
2023/08/15 12:05:44;;;;;;;2.78;1.40;;;24.10;99.90;;;;;;5051287;28;20052;-51
2023/08/15 12:08:16;;;;;;;1.83;0.90;;;24.30;99.90;;;;;;5071239;28;20039;-40
2023/08/15 12:10:42;;;;;;;4.13;1.20;;;24.20;99.90;;;;;;5071858;28;20059;-39
2023/08/15 12:13:08;;;;;;;0.87;0.87;;;23.80;99.90;;;;;;5070774;28;20024;-41
2023/08/15 12:15:34;;;;;;;1.95;1.33;;;23.40;99.90;;;;;;5072059;28;20469;-38
2023/08/15 12:17:59;;;;;;;2.42;1.38;;;23.40;99.90;;;;;;5071516;28;20511;-39
2023/08/15 12:20:25;;;;;;;1.58;1.40;;;23.40;99.90;;;;;;5071440;28;20028;-59
2023/08/15 12:22:51;;;;;;;1.83;1.67;;;23.30;99.90;;;;;;5062098;28;20020;-39
2023/08/15 12:25:16;;;;;;;1.85;1.75;;;23.30;99.90;;;;;;5068119;28;20550;-38
2023/08/15 12:27:42;;;;;;;1.90;1.75;;;23.30;99.90;;;;;;5074130;28;20481;-37
2023/08/15 12:30:08;;;;;;;1.40;1.30;;;23.30;99.90;;;;;;5073657;28;20029;-38
2023/08/15 12:32:34;;;;;;;1.35;1.25;;;23.30;99.90;;;;;;5073686;28;20481;-43
2023/08/15 12:34:59;;;;;;;1.20;1.20;;;23.30;99.90;;;;;;5073735;28;20024;-38
2023/08/15 12:37:25;;;;;;;2.17;1.40;;;23.30;99.90;;;;;;5072609;28;20033;-41
2023/08/15 12:39:51;;;;;;;1.33;1.23;;;23.40;99.90;;;;;;5073356;28;20064;-42
2023/08/15 12:42:17;;;;;;;1.52;1.42;;;23.50;99.90;;;;;;5073917;28;20028;-38
2023/08/15 12:44:43;;;;;;;3.88;1.67;;;23.60;99.90;;;;;;5072096;28;20028;-39